createdAt,value
2017-11-23T00:03:16.916Z,99007
2017-11-23T00:04:17.925Z,99009
2017-11-23T00:05:17.826Z,99009
2017-11-23T00:06:17.997Z,99007
2017-11-23T00:07:18.076Z,99010
2017-11-23T00:08:17.112Z,99012
2017-11-23T00:09:17.246Z,99004
2017-11-23T00:10:17.284Z,99006
2017-11-23T00:11:18.144Z,98999
2017-11-23T00:12:17.387Z,99009
2017-11-23T00:13:17.364Z,98998
2017-11-23T00:14:17.463Z,99003
2017-11-23T00:15:17.528Z,99003
2017-11-23T00:16:17.512Z,99007
2017-11-23T00:17:17.526Z,99002
2017-11-23T00:18:17.622Z,98998
2017-11-23T00:19:18.581Z,98999
2017-11-23T00:20:17.752Z,98997
2017-11-23T00:21:17.729Z,99001
2017-11-23T00:22:18.826Z,98997
2017-11-23T00:23:18.799Z,98994
2017-11-23T00:24:18.962Z,98990
2017-11-23T00:25:18.924Z,98998
2017-11-23T00:26:18.018Z,98998
2017-11-23T00:27:18.016Z,99007
2017-11-23T00:28:19.037Z,98996
2017-11-23T00:29:18.239Z,99000
2017-11-23T00:30:18.175Z,98997
2017-11-23T00:31:19.256Z,99002
2017-11-23T00:32:19.230Z,98996
2017-11-23T00:33:18.304Z,98996
2017-11-23T00:34:18.382Z,99001
2017-11-23T00:35:19.545Z,99003
2017-11-23T00:36:18.581Z,99007
2017-11-23T00:37:18.671Z,99008
2017-11-23T00:38:19.685Z,99004
2017-11-23T00:39:19.581Z,99004
2017-11-23T00:40:18.763Z,99004
2017-11-23T00:41:19.725Z,98999
2017-11-23T00:42:19.779Z,99003
2017-11-23T00:43:18.983Z,99008
2017-11-23T00:44:19.908Z,99006
2017-11-23T00:45:20.100Z,99007
2017-11-23T00:46:19.206Z,99006
2017-11-23T00:47:19.205Z,98996
2017-11-23T00:48:19.124Z,99008
2017-11-23T00:49:19.214Z,99003
2017-11-23T00:50:20.314Z,99004
2017-11-23T00:51:20.387Z,98995
2017-11-23T00:52:19.500Z,98994
2017-11-23T00:53:20.512Z,98994
2017-11-23T00:54:19.617Z,98996
2017-11-23T00:55:20.568Z,98990
2017-11-23T00:56:19.688Z,98991
2017-11-23T00:57:19.780Z,98998
2017-11-23T00:58:19.867Z,99000
2017-11-23T00:59:20.913Z,98993
2017-11-23T01:00:20.059Z,98991
2017-11-23T01:01:20.026Z,98994
2017-11-23T01:02:20.022Z,98998
2017-11-23T01:03:20.216Z,98997
2017-11-23T01:04:21.209Z,98990
2017-11-23T01:05:20.277Z,98990
2017-11-23T01:06:20.347Z,98984
2017-11-23T01:07:20.405Z,98988
2017-11-23T01:08:20.325Z,98986
2017-11-23T01:09:21.466Z,98990
2017-11-23T01:10:21.465Z,98994
2017-11-23T01:11:20.490Z,98993
2017-11-23T01:12:21.659Z,98991
2017-11-23T01:13:21.571Z,98993
2017-11-23T01:14:21.742Z,98988
2017-11-23T01:15:21.713Z,98996
2017-11-23T01:16:20.854Z,99004
2017-11-23T01:17:21.887Z,99001
2017-11-23T01:18:21.930Z,99005
2017-11-23T01:19:20.901Z,99000
2017-11-23T01:20:21.879Z,98996
2017-11-23T01:21:21.982Z,99000
2017-11-23T01:22:22.174Z,99001
2017-11-23T01:23:22.222Z,99007
2017-11-23T01:24:21.269Z,99010
2017-11-23T01:25:22.293Z,99006
2017-11-23T01:26:21.351Z,99009
2017-11-23T01:27:22.287Z,99008
2017-11-23T01:28:22.365Z,98993
2017-11-23T01:29:22.494Z,98989
2017-11-23T01:30:21.504Z,98998
2017-11-23T01:31:21.515Z,98996
2017-11-23T01:32:22.620Z,98995
2017-11-23T01:33:22.654Z,98988
2017-11-23T01:34:22.641Z,98991
2017-11-23T01:35:22.713Z,98998
2017-11-23T01:36:22.630Z,98984
2017-11-23T01:37:21.736Z,98984
2017-11-23T01:38:21.746Z,98998
2017-11-23T01:39:21.892Z,98990
2017-11-23T01:40:21.879Z,98982
2017-11-23T01:41:22.011Z,98982
2017-11-23T01:42:23.108Z,98986
2017-11-23T01:43:22.224Z,98977
2017-11-23T01:44:23.180Z,98983
2017-11-23T01:45:22.222Z,98981
2017-11-23T01:46:22.169Z,98982
2017-11-23T01:47:23.154Z,98976
2017-11-23T01:48:23.152Z,98976
2017-11-23T01:49:22.322Z,98968
2017-11-23T01:50:23.382Z,98965
2017-11-23T01:51:23.346Z,98962
2017-11-23T01:52:22.468Z,98960
2017-11-23T01:53:23.441Z,98961
2017-11-23T01:54:22.496Z,98949
2017-11-23T01:55:23.578Z,98960
2017-11-23T01:56:23.520Z,98955
2017-11-23T01:57:22.589Z,98943
2017-11-23T01:58:23.657Z,98956
2017-11-23T01:59:22.677Z,98954
2017-11-23T02:00:23.352Z,98952
2017-11-23T02:01:23.735Z,98943
2017-11-23T02:02:22.838Z,98948
2017-11-23T02:03:23.913Z,98954
2017-11-23T02:04:23.957Z,98946
2017-11-23T02:05:23.167Z,98938
2017-11-23T02:06:24.140Z,98939
2017-11-23T02:07:23.213Z,98943
2017-11-23T02:08:24.147Z,98931
2017-11-23T02:09:24.209Z,98934
2017-11-23T02:10:24.307Z,98936
2017-11-23T02:11:24.432Z,98933
2017-11-23T02:12:23.472Z,98932
2017-11-23T02:13:24.377Z,98932
2017-11-23T02:14:23.535Z,98930
2017-11-23T02:15:24.627Z,98937
2017-11-23T02:16:23.545Z,98938
2017-11-23T02:17:23.691Z,98933
2017-11-23T02:18:23.708Z,98930
2017-11-23T02:19:23.732Z,98937
2017-11-23T02:20:24.815Z,98935
2017-11-23T02:21:23.817Z,98931
2017-11-23T02:22:23.958Z,98933
2017-11-23T02:23:23.897Z,98912
2017-11-23T02:24:25.011Z,98912
2017-11-23T02:25:24.055Z,98912
2017-11-23T02:26:24.064Z,98916
2017-11-23T02:27:25.008Z,98923
2017-11-23T02:28:24.247Z,98922
2017-11-23T02:29:25.197Z,98921
2017-11-23T02:30:24.366Z,98913
2017-11-23T02:31:24.439Z,98913
2017-11-23T02:32:25.320Z,98901
2017-11-23T02:33:25.474Z,98903
2017-11-23T02:34:25.512Z,98901
2017-11-23T02:35:24.573Z,98906
2017-11-23T02:36:25.627Z,98904
2017-11-23T02:37:25.687Z,98906
2017-11-23T02:38:24.673Z,98905
2017-11-23T02:39:24.780Z,98887
2017-11-23T02:40:25.857Z,98896
2017-11-23T02:41:25.768Z,98901
2017-11-23T02:42:25.925Z,98894
2017-11-23T02:43:26.036Z,98893
2017-11-23T02:44:25.129Z,98886
2017-11-23T02:45:25.181Z,98881
2017-11-23T02:46:25.080Z,98877
2017-11-23T02:47:25.267Z,98876
2017-11-23T02:48:25.290Z,98877
2017-11-23T02:49:25.287Z,98876
2017-11-23T02:50:25.352Z,98874
2017-11-23T02:51:26.440Z,98862
2017-11-23T02:52:25.526Z,98864
2017-11-23T02:53:25.452Z,98862
2017-11-23T02:54:26.486Z,98865
2017-11-23T02:55:25.547Z,98863
2017-11-23T02:56:25.561Z,98862
2017-11-23T02:57:25.582Z,98861
2017-11-23T02:58:26.671Z,98865
2017-11-23T02:59:26.775Z,98866
2017-11-23T03:00:25.770Z,98848
2017-11-23T03:01:26.848Z,98869
2017-11-23T03:02:26.923Z,98865
2017-11-23T03:03:26.875Z,98868
2017-11-23T03:04:26.922Z,98867
2017-11-23T03:05:26.090Z,98870
2017-11-23T03:06:26.077Z,98864
2017-11-23T03:07:26.175Z,98866
2017-11-23T03:08:27.204Z,98860
2017-11-23T03:09:27.266Z,98863
2017-11-23T03:10:27.290Z,98871
2017-11-23T03:11:26.267Z,98875
2017-11-23T03:12:26.290Z,98876
2017-11-23T03:13:27.310Z,98881
2017-11-23T03:14:27.485Z,98883
2017-11-23T03:15:27.541Z,98887
2017-11-23T03:16:27.517Z,98891
2017-11-23T03:17:26.672Z,98888
2017-11-23T03:18:26.590Z,98890
2017-11-23T03:19:26.595Z,98886
2017-11-23T03:20:26.696Z,98881
2017-11-23T03:21:27.828Z,98877
2017-11-23T03:22:26.927Z,98875
2017-11-23T03:23:26.989Z,98870
2017-11-23T03:24:27.925Z,98872
2017-11-23T03:25:27.086Z,98877
2017-11-23T03:26:28.031Z,98868
2017-11-23T03:27:27.945Z,98866
2017-11-23T03:28:26.987Z,98858
2017-11-23T03:29:26.985Z,98860
2017-11-23T03:30:28.075Z,98863
2017-11-23T03:31:27.161Z,98866
2017-11-23T03:32:28.106Z,98866
2017-11-23T03:33:28.142Z,98870
2017-11-23T03:34:27.362Z,98871
2017-11-23T03:35:28.332Z,98874
2017-11-23T03:36:27.258Z,98868
2017-11-23T03:37:27.347Z,98871
2017-11-23T03:38:27.513Z,98863
2017-11-23T03:39:27.503Z,98859
2017-11-23T03:40:28.496Z,98861
2017-11-23T03:41:27.582Z,98853
2017-11-23T03:42:27.704Z,98853
2017-11-23T03:43:28.771Z,98854
2017-11-23T03:44:27.829Z,98841
2017-11-23T03:45:28.781Z,98842
2017-11-23T03:46:27.854Z,98841
2017-11-23T03:47:27.919Z,98848
2017-11-23T03:48:27.939Z,98846
2017-11-23T03:49:28.033Z,98849
2017-11-23T03:50:28.051Z,98840
2017-11-23T03:51:28.090Z,98856
2017-11-23T03:52:29.048Z,98855
2017-11-23T03:53:29.224Z,98856
2017-11-23T03:54:28.336Z,98853
2017-11-23T03:55:29.253Z,98850
2017-11-23T03:56:29.294Z,98852
2017-11-23T03:57:29.349Z,98859
2017-11-23T03:58:29.494Z,98854
2017-11-23T03:59:29.467Z,98865
2017-11-23T04:00:28.556Z,98863
2017-11-23T04:01:28.646Z,98869
2017-11-23T04:02:28.587Z,98860
2017-11-23T04:03:28.666Z,98870
2017-11-23T04:04:29.813Z,98856
2017-11-23T04:05:28.893Z,98859
2017-11-23T04:06:28.824Z,98860
2017-11-23T04:07:28.820Z,98857
2017-11-23T04:08:29.003Z,98858
2017-11-23T04:09:29.946Z,98855
2017-11-23T04:10:29.123Z,98867
2017-11-23T04:11:29.169Z,98854
2017-11-23T04:12:29.102Z,98840
2017-11-23T04:13:29.282Z,98851
2017-11-23T04:14:29.243Z,98845
2017-11-23T04:15:29.315Z,98857
2017-11-23T04:16:30.398Z,98852
2017-11-23T04:17:29.497Z,98851
2017-11-23T04:18:29.452Z,98845
2017-11-23T04:19:30.584Z,98861
2017-11-23T04:20:29.586Z,98856
2017-11-23T04:21:29.738Z,98846
2017-11-23T04:22:29.807Z,98847
2017-11-23T04:23:30.857Z,98855
2017-11-23T04:24:29.942Z,98851
2017-11-23T04:25:29.836Z,98842
2017-11-23T04:26:30.874Z,98842
2017-11-23T04:27:31.040Z,98840
2017-11-23T04:28:30.938Z,98845
2017-11-23T04:29:30.085Z,98839
2017-11-23T04:30:31.137Z,98838
2017-11-23T04:31:30.216Z,98844
2017-11-23T04:32:31.297Z,98847
2017-11-23T04:33:30.377Z,98837
2017-11-23T04:34:30.437Z,98847
2017-11-23T04:35:31.357Z,98842
2017-11-23T04:36:30.474Z,98849
2017-11-23T04:37:30.541Z,98849
2017-11-23T04:38:31.529Z,98853
2017-11-23T04:39:31.423Z,98841
2017-11-23T04:40:31.548Z,98841
2017-11-23T04:41:31.490Z,98841
2017-11-23T04:42:30.670Z,98852
2017-11-23T04:43:30.738Z,98846
2017-11-23T04:44:30.833Z,98846
2017-11-23T04:45:31.752Z,98845
2017-11-23T04:46:31.796Z,98848
2017-11-23T04:47:31.823Z,98857
2017-11-23T04:48:31.837Z,98862
2017-11-23T04:49:30.988Z,98854
2017-11-23T04:50:32.037Z,98856
2017-11-23T04:51:31.108Z,98855
2017-11-23T04:52:32.087Z,98856
2017-11-23T04:53:32.089Z,98826
2017-11-23T04:54:32.210Z,98844
2017-11-23T04:55:31.248Z,98837
2017-11-23T04:56:31.212Z,98836
2017-11-23T04:57:31.232Z,98837
2017-11-23T04:58:32.387Z,98848
2017-11-23T04:59:31.589Z,98844
2017-11-23T05:00:32.518Z,98834
2017-11-23T05:01:32.421Z,98842
2017-11-23T05:02:32.489Z,98842
2017-11-23T05:03:31.666Z,98828
2017-11-23T05:04:31.742Z,98844
2017-11-23T05:05:31.708Z,98838
2017-11-23T05:06:32.886Z,98837
2017-11-23T05:07:32.875Z,98821
2017-11-23T05:08:32.808Z,98818
2017-11-23T05:09:32.898Z,98826
2017-11-23T05:10:32.973Z,98843
2017-11-23T05:11:33.027Z,98832
2017-11-23T05:12:33.021Z,98818
2017-11-23T05:13:32.111Z,98817
2017-11-23T05:14:33.079Z,98814
2017-11-23T05:15:32.147Z,98823
2017-11-23T05:16:33.234Z,98829
2017-11-23T05:17:32.262Z,98823
2017-11-23T05:18:32.260Z,98851
2017-11-23T05:19:32.355Z,98823
2017-11-23T05:20:32.423Z,98815
2017-11-23T05:21:32.575Z,98817
2017-11-23T05:22:33.484Z,98801
2017-11-23T05:23:32.584Z,98788
2017-11-23T05:24:32.774Z,98787
2017-11-23T05:25:33.839Z,98802
2017-11-23T05:26:32.880Z,98803
2017-11-23T05:27:33.140Z,98792
2017-11-23T05:28:34.020Z,98786
2017-11-23T05:29:33.961Z,98807
2017-11-23T05:30:32.984Z,98788
2017-11-23T05:31:34.063Z,98806
2017-11-23T05:32:34.113Z,98790
2017-11-23T05:33:33.135Z,98806
2017-11-23T05:34:33.280Z,98808
2017-11-23T05:35:34.288Z,98803
2017-11-23T05:36:33.422Z,98814
2017-11-23T05:37:33.426Z,98822
2017-11-23T05:38:34.499Z,98810
2017-11-23T05:39:34.592Z,98804
2017-11-23T05:40:34.537Z,98815
2017-11-23T05:41:34.546Z,98824
2017-11-23T05:42:33.728Z,98819
2017-11-23T05:43:34.728Z,98808
2017-11-23T05:44:34.691Z,98796
2017-11-23T05:45:34.878Z,98792
2017-11-23T05:46:33.988Z,98803
2017-11-23T05:47:33.873Z,98814
2017-11-23T05:48:34.886Z,98809
2017-11-23T05:49:34.118Z,98813
2017-11-23T05:50:34.183Z,98803
2017-11-23T05:51:35.228Z,98792
2017-11-23T05:52:35.248Z,98790
2017-11-23T05:53:34.175Z,98789
2017-11-23T05:54:35.148Z,98795
2017-11-23T05:55:35.214Z,98805
2017-11-23T05:56:35.256Z,98785
2017-11-23T05:57:34.334Z,98793
2017-11-23T05:58:35.408Z,98800
2017-11-23T05:59:35.406Z,98807
2017-11-23T06:00:35.456Z,98793
2017-11-23T06:01:34.634Z,98793
2017-11-23T06:02:35.550Z,98794
2017-11-23T06:03:34.672Z,98783
2017-11-23T06:04:35.833Z,98787
2017-11-23T06:05:35.809Z,98781
2017-11-23T06:06:34.889Z,98786
2017-11-23T06:07:35.934Z,98778
2017-11-23T06:08:35.126Z,98778
2017-11-23T06:09:36.193Z,98773
2017-11-23T06:10:36.553Z,98785
2017-11-23T06:11:35.354Z,98778
2017-11-23T06:12:35.364Z,98791
2017-11-23T06:13:36.418Z,98769
2017-11-23T06:14:35.641Z,98766
2017-11-23T06:15:35.834Z,98770
2017-11-23T06:16:35.597Z,98782
2017-11-23T06:17:35.777Z,98778
2017-11-23T06:18:35.745Z,98787
2017-11-23T06:19:36.534Z,98792
2017-11-23T06:20:35.666Z,98792
2017-11-23T06:21:36.600Z,98824
2017-11-23T06:30:07.663Z,98775
2017-11-23T06:31:07.711Z,98775
2017-11-23T06:32:07.703Z,98777
2017-11-23T06:33:08.823Z,98781
2017-11-23T06:34:07.898Z,98776
2017-11-23T06:35:07.870Z,98783
2017-11-23T06:36:08.012Z,98770
2017-11-23T06:37:08.879Z,98793
2017-11-23T06:38:08.073Z,98816
2017-11-23T06:39:09.136Z,98789
2017-11-23T06:40:08.163Z,98790
2017-11-23T06:41:09.168Z,98787
2017-11-23T06:42:08.225Z,98787
2017-11-23T06:43:09.382Z,98792
2017-11-23T06:44:09.257Z,98783
2017-11-23T06:45:08.452Z,98823
2017-11-23T06:46:08.481Z,98787
2017-11-23T06:47:08.544Z,98820
2017-11-23T06:48:09.486Z,98826
2017-11-23T06:49:09.584Z,98805
2017-11-23T06:50:09.707Z,98825
2017-11-23T06:51:09.739Z,98793
2017-11-23T06:52:08.689Z,98803
2017-11-23T06:53:09.718Z,98806
2017-11-23T06:54:09.881Z,98828
2017-11-23T06:55:08.990Z,98847
2017-11-23T06:56:10.666Z,98821
2017-11-23T06:57:10.002Z,98867
2017-11-23T06:58:08.982Z,98847
2017-11-23T06:59:10.104Z,98823
2017-11-23T07:00:09.159Z,98833
2017-11-23T07:01:09.231Z,98812
2017-11-23T07:02:10.304Z,98821
2017-11-23T07:03:10.380Z,98844
2017-11-23T07:04:09.335Z,98838
2017-11-23T07:05:09.421Z,98851
2017-11-23T07:06:09.359Z,98827
2017-11-23T07:07:09.463Z,98831
2017-11-23T07:08:09.504Z,98836
2017-11-23T07:09:10.566Z,98822
2017-11-23T07:10:10.637Z,98853
2017-11-23T07:11:10.675Z,98841
2017-11-23T07:12:10.876Z,98834
2017-11-23T07:13:09.825Z,98845
2017-11-23T07:14:09.815Z,98830
2017-11-23T07:15:10.872Z,98873
2017-11-23T07:16:10.003Z,98840
2017-11-23T07:17:11.141Z,98830
2017-11-23T07:18:10.129Z,98815
2017-11-23T07:19:10.261Z,98856
2017-11-23T07:20:10.195Z,98880
2017-11-23T07:21:10.396Z,98832
2017-11-23T07:22:10.402Z,98904
2017-11-23T07:23:10.521Z,98840
2017-11-23T07:24:10.580Z,98866
2017-11-23T07:25:11.598Z,98841
2017-11-23T07:26:11.637Z,98841
2017-11-23T07:27:10.675Z,98828
2017-11-23T07:28:10.723Z,98838
2017-11-23T07:29:11.763Z,98855
2017-11-23T07:30:10.849Z,98873
2017-11-23T07:31:10.834Z,98829
2017-11-23T07:32:11.809Z,98833
2017-11-23T07:33:10.937Z,98856
2017-11-23T07:34:11.874Z,98831
2017-11-23T07:35:11.996Z,98859
2017-11-23T07:36:10.972Z,98842
2017-11-23T07:37:12.022Z,98848
2017-11-23T07:38:12.024Z,98867
2017-11-23T07:39:11.220Z,98858
2017-11-23T07:40:12.195Z,98877
2017-11-23T07:41:12.262Z,98853
2017-11-23T07:42:11.381Z,98853
2017-11-23T07:43:12.280Z,98846
2017-11-23T07:44:11.431Z,98859
2017-11-23T07:45:11.427Z,98869
2017-11-23T07:46:11.390Z,98860
2017-11-23T07:47:12.530Z,98854
2017-11-23T07:48:12.487Z,98874
2017-11-23T07:49:11.686Z,98855
2017-11-23T07:50:12.709Z,98857
2017-11-23T07:51:12.039Z,98888
2017-11-23T07:52:12.938Z,98824
2017-11-23T07:53:13.151Z,98832
2017-11-23T07:54:12.864Z,98845
2017-11-23T07:55:11.875Z,98848
2017-11-23T07:56:11.839Z,98827
2017-11-23T07:57:13.774Z,98848
2017-11-23T07:58:12.098Z,98836
2017-11-23T07:59:12.025Z,98832
2017-11-23T08:00:13.132Z,98896
2017-11-23T08:01:12.329Z,98838
2017-11-23T08:02:13.419Z,98826
2017-11-23T08:03:13.369Z,98850
2017-11-23T08:04:13.509Z,98865
2017-11-23T08:05:12.432Z,98870
2017-11-23T08:06:13.985Z,98845
2017-11-23T08:07:13.728Z,98841
2017-11-23T08:08:13.994Z,98857
2017-11-23T08:09:14.243Z,98913
2017-11-23T08:10:12.821Z,98866
2017-11-23T08:11:13.766Z,98886
2017-11-23T08:12:13.878Z,98863
2017-11-23T08:13:13.991Z,98839
2017-11-23T08:14:14.101Z,98852
2017-11-23T08:15:13.205Z,98827
2017-11-23T08:16:14.110Z,98835
2017-11-23T08:17:13.289Z,98855
2017-11-23T08:18:13.134Z,98839
2017-11-23T08:19:13.269Z,98843
2017-11-23T08:20:13.282Z,98838
2017-11-23T08:21:14.309Z,98847
2017-11-23T08:22:13.353Z,98846
2017-11-23T08:23:14.478Z,98838
2017-11-23T08:24:13.661Z,98837
2017-11-23T08:25:13.392Z,98878
2017-11-23T08:26:14.448Z,98852
2017-11-23T08:27:14.616Z,98841
2017-11-23T08:28:13.555Z,98830
2017-11-23T08:29:13.777Z,98873
2017-11-23T08:30:13.725Z,98842
2017-11-23T08:31:13.883Z,98842
2017-11-23T08:32:14.862Z,98856
2017-11-23T08:33:13.966Z,98858
2017-11-23T08:34:14.840Z,98845
2017-11-23T08:35:14.881Z,98850
2017-11-23T08:36:13.907Z,98859
2017-11-23T08:37:15.090Z,98895
2017-11-23T08:38:14.996Z,98869
2017-11-23T08:39:14.060Z,98851
2017-11-23T08:40:14.121Z,98839
2017-11-23T08:41:14.053Z,98865
2017-11-23T08:42:14.225Z,98901
2017-11-23T08:43:15.273Z,98876
2017-11-23T08:44:15.310Z,98890
2017-11-23T08:45:14.330Z,98867
2017-11-23T08:46:14.556Z,98860
2017-11-23T08:47:14.861Z,98855
2017-11-23T08:48:15.425Z,98867
2017-11-23T08:49:16.248Z,98861
2017-11-23T08:50:15.464Z,98870
2017-11-23T08:51:15.612Z,98892
2017-11-23T08:52:15.746Z,98879
2017-11-23T08:53:15.667Z,98872
2017-11-23T08:54:15.739Z,98864
2017-11-23T08:55:15.759Z,98891
2017-11-23T08:56:14.751Z,98875
2017-11-23T08:57:14.814Z,98850
2017-11-23T08:58:15.851Z,98910
2017-11-23T08:59:14.770Z,98860
2017-11-23T09:00:14.885Z,98885
2017-11-23T09:01:14.846Z,98865
2017-11-23T09:02:15.966Z,98868
2017-11-23T09:03:16.001Z,98849
2017-11-23T09:04:15.977Z,98842
2017-11-23T09:05:16.013Z,98872
2017-11-23T09:06:15.026Z,98897
2017-11-23T09:07:15.172Z,98892
2017-11-23T09:08:15.114Z,98876
2017-11-23T09:09:15.302Z,98883
2017-11-23T09:10:15.125Z,98870
2017-11-23T09:11:15.238Z,98883
2017-11-23T09:12:16.271Z,98913
2017-11-23T09:13:15.359Z,98840
2017-11-23T09:14:16.487Z,98894
2017-11-23T09:15:16.467Z,98887
2017-11-23T09:16:16.547Z,98862
2017-11-23T09:17:16.692Z,98871
2017-11-23T09:18:16.619Z,98877
2017-11-23T09:19:15.765Z,98889
2017-11-23T09:20:15.806Z,98877
2017-11-23T09:21:17.025Z,98858
2017-11-23T09:22:16.891Z,98878
2017-11-23T09:23:16.840Z,98856
2017-11-23T09:24:15.844Z,98869
2017-11-23T09:25:15.890Z,98846
2017-11-23T09:26:16.050Z,98862
2017-11-23T09:27:17.145Z,98858
2017-11-23T09:28:17.150Z,98860
2017-11-23T09:29:17.173Z,98858
2017-11-23T09:30:17.219Z,98926
2017-11-23T09:31:17.193Z,98885
2017-11-23T09:32:16.349Z,98870
2017-11-23T09:33:16.272Z,98884
2017-11-23T09:34:17.359Z,98880
2017-11-23T09:35:16.413Z,98917
2017-11-23T09:36:16.342Z,98902
2017-11-23T09:37:16.427Z,98878
2017-11-23T09:38:17.516Z,98887
2017-11-23T09:39:17.688Z,98896
2017-11-23T09:40:17.700Z,98877
2017-11-23T09:41:16.770Z,98859
2017-11-23T09:42:17.830Z,98917
2017-11-23T09:43:17.823Z,98954
2017-11-23T09:44:16.890Z,98929
2017-11-23T09:45:16.972Z,98879
2017-11-23T09:46:17.848Z,98900
2017-11-23T09:47:17.024Z,98908
2017-11-23T09:48:17.108Z,98898
2017-11-23T09:49:18.125Z,98904
2017-11-23T09:50:18.115Z,98905
2017-11-23T09:51:18.278Z,98902
2017-11-23T09:52:18.514Z,98894
2017-11-23T09:53:18.261Z,98902
2017-11-23T09:54:18.418Z,98901
2017-11-23T09:55:18.358Z,98911
2017-11-23T09:56:18.343Z,98916
2017-11-23T09:57:18.477Z,98924
2017-11-23T09:58:18.701Z,98916
2017-11-23T09:59:18.574Z,98907
2017-11-23T10:00:17.670Z,98900
2017-11-23T10:01:18.769Z,98940
2017-11-23T10:02:18.968Z,98893
2017-11-23T10:03:17.793Z,98906
2017-11-23T10:04:18.911Z,98913
2017-11-23T10:05:18.939Z,98889
2017-11-23T10:06:18.982Z,98906
2017-11-23T10:07:17.916Z,98932
2017-11-23T10:08:19.152Z,98918
2017-11-23T10:09:18.440Z,98958
2017-11-23T10:10:18.417Z,98947
2017-11-23T10:11:18.474Z,98913
2017-11-23T10:12:18.220Z,98918
2017-11-23T10:13:19.556Z,98917
2017-11-23T10:14:18.313Z,98921
2017-11-23T10:15:19.616Z,98908
2017-11-23T10:16:18.671Z,98920
2017-11-23T10:17:19.621Z,98911
2017-11-23T10:18:18.657Z,98920
2017-11-23T10:19:19.593Z,98905
2017-11-23T10:20:19.614Z,98941
2017-11-23T10:21:19.829Z,98914
2017-11-23T10:22:19.830Z,98915
2017-11-23T10:23:19.735Z,98941
2017-11-23T10:24:19.885Z,98904
2017-11-23T10:25:18.920Z,98904
2017-11-23T10:26:19.093Z,98912
2017-11-23T10:27:20.160Z,98919
2017-11-23T10:28:20.216Z,98920
2017-11-23T10:29:20.177Z,98903
2017-11-23T10:30:19.338Z,98912
2017-11-23T10:31:19.402Z,98905
2017-11-23T10:32:19.524Z,98924
2017-11-23T10:33:19.307Z,98903
2017-11-23T10:34:20.463Z,98908
2017-11-23T10:35:19.429Z,98929
2017-11-23T10:36:20.520Z,98907
2017-11-23T10:37:19.580Z,98906
2017-11-23T10:38:20.606Z,98903
2017-11-23T10:39:19.681Z,98908
2017-11-23T10:40:19.585Z,98921
2017-11-23T10:41:19.600Z,98910
2017-11-23T10:42:21.391Z,98928
2017-11-23T10:43:20.105Z,98920
2017-11-23T10:44:19.902Z,98932
2017-11-23T10:45:20.755Z,98924
2017-11-23T10:46:19.924Z,98939
2017-11-23T10:47:19.890Z,98922
2017-11-23T10:48:20.056Z,98931
2017-11-23T10:49:20.942Z,98929
2017-11-23T10:50:20.028Z,98935
2017-11-23T10:51:21.166Z,98939
2017-11-23T10:52:20.241Z,98928
2017-11-23T10:53:21.254Z,98943
2017-11-23T10:54:20.312Z,98938
2017-11-23T10:55:20.339Z,98938
2017-11-23T10:56:21.268Z,98935
2017-11-23T10:57:20.446Z,98969
2017-11-23T10:58:21.364Z,98934
2017-11-23T10:59:20.512Z,98941
2017-11-23T11:00:21.611Z,98951
2017-11-23T11:01:20.548Z,98934
2017-11-23T11:02:20.738Z,98923
2017-11-23T11:03:21.653Z,98934
2017-11-23T11:04:20.997Z,98933
2017-11-23T11:05:21.989Z,98926
2017-11-23T11:06:22.112Z,98925
2017-11-23T11:07:22.034Z,98925
2017-11-23T11:08:22.217Z,98922
2017-11-23T11:09:22.038Z,98929
2017-11-23T11:10:21.963Z,98928
2017-11-23T11:11:21.240Z,98932
2017-11-23T11:12:22.253Z,98940
2017-11-23T11:13:21.051Z,98937
2017-11-23T11:14:21.269Z,98979
2017-11-23T11:15:22.386Z,98966
2017-11-23T11:16:21.215Z,98945
2017-11-23T11:17:22.253Z,98941
2017-11-23T11:18:21.442Z,98935
2017-11-23T11:19:22.423Z,98940
2017-11-23T11:20:22.411Z,98938
2017-11-23T11:21:21.408Z,98937
2017-11-23T11:22:21.762Z,98945
2017-11-23T11:23:22.817Z,98946
2017-11-23T11:24:22.753Z,98956
2017-11-23T11:25:22.009Z,98949
2017-11-23T11:26:22.196Z,98951
2017-11-23T11:27:22.139Z,98942
2017-11-23T11:28:22.397Z,98951
2017-11-23T11:29:22.192Z,98946
2017-11-23T11:30:23.038Z,98959
2017-11-23T11:31:23.173Z,98952
2017-11-23T11:32:23.401Z,98957
2017-11-23T11:33:22.306Z,98961
2017-11-23T11:34:22.438Z,98967
2017-11-23T11:35:23.478Z,98957
2017-11-23T11:36:22.621Z,98956
2017-11-23T11:37:22.563Z,99025
2017-11-23T11:38:23.795Z,98971
2017-11-23T11:39:22.753Z,98951
2017-11-23T11:40:23.738Z,98971
2017-11-23T11:41:23.443Z,98985
2017-11-23T11:42:22.480Z,98985
2017-11-23T11:43:23.859Z,98984
2017-11-23T11:44:22.570Z,98982
2017-11-23T11:45:23.677Z,98978
2017-11-23T11:46:23.689Z,98980
2017-11-23T11:47:22.713Z,98986
2017-11-23T11:48:22.784Z,98972
2017-11-23T11:49:23.895Z,98977
2017-11-23T11:50:24.068Z,98972
2017-11-23T11:51:24.128Z,98965
2017-11-23T11:52:23.292Z,98974
2017-11-23T11:53:24.071Z,98984
2017-11-23T11:54:24.639Z,98991
2017-11-23T11:55:24.066Z,98988
2017-11-23T11:56:24.225Z,98988
2017-11-23T11:57:24.237Z,98998
2017-11-23T11:58:23.586Z,98982
2017-11-23T11:59:24.254Z,98997
2017-11-23T12:00:23.534Z,98986
2017-11-23T12:01:24.516Z,99003
2017-11-23T12:02:23.605Z,99004
2017-11-23T12:03:24.771Z,98996
2017-11-23T12:04:24.893Z,99001
2017-11-23T12:05:23.709Z,98986
2017-11-23T12:06:23.672Z,99005
2017-11-23T12:07:25.049Z,99004
2017-11-23T12:08:23.854Z,99000
2017-11-23T12:09:23.895Z,99011
2017-11-23T12:10:24.093Z,99014
2017-11-23T12:11:25.013Z,98999
2017-11-23T12:12:24.034Z,98991
2017-11-23T12:13:24.030Z,99011
2017-11-23T12:14:25.134Z,99019
2017-11-23T12:15:24.149Z,99001
2017-11-23T12:16:24.837Z,99004
2017-11-23T12:17:25.293Z,99003
2017-11-23T12:18:25.364Z,99010
2017-11-23T12:19:24.287Z,98999
2017-11-23T12:20:25.411Z,99007
2017-11-23T12:21:24.517Z,99000
2017-11-23T12:22:25.565Z,98998
2017-11-23T12:23:25.683Z,99010
2017-11-23T12:24:25.522Z,99007
2017-11-23T12:25:24.617Z,99014
2017-11-23T12:26:24.952Z,99025
2017-11-23T12:27:24.768Z,99050
2017-11-23T12:28:25.832Z,99033
2017-11-23T12:29:25.416Z,99043
2017-11-23T12:30:25.348Z,99034
2017-11-23T12:31:27.792Z,99042
2017-11-23T12:32:26.004Z,99045
2017-11-23T12:33:25.528Z,99058
2017-11-23T12:34:25.125Z,99068
2017-11-23T12:35:26.018Z,99050
2017-11-23T12:36:26.110Z,99049
2017-11-23T12:37:26.015Z,99049
2017-11-23T12:38:26.156Z,99041
2017-11-23T12:39:26.112Z,99050
2017-11-23T12:40:26.181Z,99044
2017-11-23T12:41:26.242Z,99055
2017-11-23T12:42:26.338Z,99029
2017-11-23T12:43:25.359Z,99029
2017-11-23T12:44:25.397Z,99031
2017-11-23T12:45:26.461Z,99037
2017-11-23T12:46:26.421Z,99047
2017-11-23T12:47:26.582Z,99053
2017-11-23T12:48:26.541Z,99046
2017-11-23T12:49:25.769Z,99045
2017-11-23T12:50:25.884Z,99054
2017-11-23T12:51:25.765Z,99045
2017-11-23T12:52:25.987Z,99047
2017-11-23T12:53:25.964Z,99035
2017-11-23T12:54:26.942Z,99044
2017-11-23T12:55:26.140Z,99027
2017-11-23T12:56:26.211Z,99034
2017-11-23T12:57:26.105Z,99039
2017-11-23T12:58:27.054Z,99050
2017-11-23T12:59:27.211Z,99043
2017-11-23T13:00:27.090Z,99049
2017-11-23T13:01:26.294Z,99052
2017-11-23T13:02:26.800Z,99034
2017-11-23T13:03:26.514Z,99040